createdAt,value
2016-09-29T00:00:12.967Z,73.49
2016-09-29T00:01:13.661Z,73.33
2016-09-29T00:02:14.426Z,73.04
2016-09-29T00:03:15.136Z,73.24
2016-09-29T00:04:15.832Z,72.75
2016-09-29T00:05:16.525Z,73.33
2016-09-29T00:06:17.212Z,73.04
2016-09-29T00:07:17.924Z,73.04
2016-09-29T00:08:18.610Z,72.95
2016-09-29T00:09:19.341Z,73.33
2016-09-29T00:10:20.038Z,73.04
2016-09-29T00:11:20.733Z,73.14
2016-09-29T00:12:21.456Z,73.52
2016-09-29T00:13:22.146Z,73.24
2016-09-29T00:14:22.864Z,73.33
2016-09-29T00:15:23.554Z,73.49
2016-09-29T00:16:24.280Z,74.01
2016-09-29T00:17:25.122Z,73.81
2016-09-29T00:18:25.766Z,73.62
2016-09-29T00:19:26.452Z,73.72
2016-09-29T00:20:27.180Z,73.62
2016-09-29T00:21:27.874Z,73.62
2016-09-29T00:22:28.590Z,73.77
2016-09-29T00:23:29.278Z,73.52
2016-09-29T00:24:30.076Z,73.39
2016-09-29T00:25:30.763Z,73.33
2016-09-29T00:26:31.519Z,73.52
2016-09-29T00:27:32.224Z,73.43
2016-09-29T00:28:33.004Z,73.24
2016-09-29T00:29:33.691Z,73.39
2016-09-29T00:30:34.412Z,73.72
2016-09-29T00:31:35.090Z,73.91
2016-09-29T00:32:35.804Z,74.01
2016-09-29T00:33:36.483Z,73.52
2016-09-29T00:34:37.173Z,73.72
2016-09-29T00:35:37.876Z,73.43
2016-09-29T00:36:38.559Z,73.49
2016-09-29T00:37:39.277Z,73.58
2016-09-29T00:38:39.967Z,73.68
2016-09-29T00:39:40.665Z,73.58
2016-09-29T00:40:41.352Z,73.62
2016-09-29T00:41:42.052Z,73.77
2016-09-29T00:42:42.748Z,73.52
2016-09-29T00:43:43.701Z,73.58
2016-09-29T00:44:44.449Z,73.33
2016-09-29T00:45:45.159Z,73.72
2016-09-29T00:46:45.947Z,73.39
2016-09-29T00:47:46.644Z,73.24
2016-09-29T00:48:47.340Z,72.81
2016-09-29T00:49:48.110Z,73.39
2016-09-29T00:50:48.795Z,73.33
2016-09-29T00:51:49.496Z,73.49
2016-09-29T00:52:50.184Z,73
2016-09-29T00:53:50.895Z,73
2016-09-29T00:54:51.598Z,73.2
2016-09-29T00:55:52.289Z,73.43
2016-09-29T00:56:53.038Z,73.58
2016-09-29T00:57:53.775Z,73.68
2016-09-29T00:58:54.629Z,73.68
2016-09-29T00:59:55.332Z,73.49
2016-09-29T01:00:56.022Z,73.77
2016-09-29T01:01:56.887Z,73.39
2016-09-29T01:02:57.617Z,73.2
2016-09-29T01:03:58.406Z,73.77
2016-09-29T01:04:59.296Z,73.58
2016-09-29T01:06:00.111Z,73.68
2016-09-29T01:07:02.234Z,73.68
2016-09-29T01:08:03.272Z,73.58
2016-09-29T01:09:04.016Z,73.49
2016-09-29T01:10:04.803Z,73.2
2016-09-29T01:11:05.470Z,73.2
2016-09-29T01:12:06.184Z,73.49
2016-09-29T01:13:06.880Z,73.68
2016-09-29T01:14:07.578Z,73.77
2016-09-29T01:15:08.259Z,73.97
2016-09-29T01:16:08.984Z,73.77
2016-09-29T01:17:09.685Z,73.68
2016-09-29T01:18:10.372Z,73.77
2016-09-29T01:19:11.085Z,73.97
2016-09-29T01:20:11.775Z,73.87
2016-09-29T01:21:12.487Z,73.97
2016-09-29T01:22:13.205Z,74.06
2016-09-29T01:23:13.946Z,74.35
2016-09-29T01:24:14.635Z,73.87
2016-09-29T01:25:15.335Z,74.35
2016-09-29T01:26:16.026Z,73.97
2016-09-29T01:27:16.721Z,74.26
2016-09-29T01:28:17.417Z,73.87
2016-09-29T01:29:18.098Z,74.64
2016-09-29T01:30:18.793Z,74.54
2016-09-29T01:31:19.491Z,74.44
2016-09-29T01:32:20.183Z,74.35
2016-09-29T01:33:20.904Z,74.35
2016-09-29T01:34:21.607Z,74.54
2016-09-29T01:35:22.296Z,74.16
2016-09-29T01:36:22.982Z,74.83
2016-09-29T01:37:23.678Z,74.73
2016-09-29T01:38:24.378Z,74.93
2016-09-29T01:39:25.068Z,74.73
2016-09-29T01:40:25.763Z,74.44
2016-09-29T01:41:26.487Z,74.64
2016-09-29T01:42:27.217Z,74.44
2016-09-29T01:43:27.907Z,74.06
2016-09-29T01:44:28.604Z,74.35
2016-09-29T01:45:29.309Z,73.97
2016-09-29T01:46:30.004Z,73.87
2016-09-29T01:47:30.696Z,73.68
2016-09-29T01:48:31.387Z,74.06
2016-09-29T01:49:32.061Z,74.26
2016-09-29T01:50:32.757Z,73.87
2016-09-29T01:51:33.446Z,74.26
2016-09-29T01:52:34.150Z,74.44
2016-09-29T01:53:34.829Z,74.35
2016-09-29T01:54:35.536Z,74.16
2016-09-29T01:55:36.256Z,73.97
2016-09-29T01:56:36.952Z,74.16
2016-09-29T01:57:37.674Z,73.87
2016-09-29T01:58:38.372Z,73.97
2016-09-29T01:59:39.070Z,74.44
2016-09-29T02:00:39.763Z,74.26
2016-09-29T02:01:40.454Z,74.73
2016-09-29T02:02:41.136Z,74.54
2016-09-29T02:03:41.833Z,75.31
2016-09-29T02:04:42.530Z,74.93
2016-09-29T02:05:43.233Z,75.12
2016-09-29T02:06:43.958Z,74.54
2016-09-29T02:07:44.709Z,74.73
2016-09-29T02:08:45.422Z,74.44
2016-09-29T02:09:46.116Z,74.44
2016-09-29T02:10:46.802Z,74.44
2016-09-29T02:11:47.547Z,74.16
2016-09-29T02:12:48.231Z,74.44
2016-09-29T02:13:48.916Z,74.44
2016-09-29T02:14:49.610Z,74.83
2016-09-29T02:15:50.303Z,74.26
2016-09-29T02:16:50.989Z,74.64
2016-09-29T02:17:51.705Z,74.93
2016-09-29T02:18:52.398Z,75.12
2016-09-29T02:19:53.091Z,74.83
2016-09-29T02:20:53.779Z,75.21
2016-09-29T02:21:54.494Z,75.12
2016-09-29T02:22:55.196Z,75.4
2016-09-29T02:23:55.882Z,75.21
2016-09-29T02:24:56.582Z,75.4
2016-09-29T02:25:57.264Z,74.83
2016-09-29T02:26:57.963Z,75.4
2016-09-29T02:27:58.651Z,75.12
2016-09-29T02:28:59.335Z,75.7
2016-09-29T02:30:00.044Z,75.4
2016-09-29T02:31:00.731Z,75.4
2016-09-29T02:32:01.417Z,75.31
2016-09-29T02:33:02.112Z,75.5
2016-09-29T02:34:02.801Z,75.4
2016-09-29T02:35:03.493Z,75.4
2016-09-29T02:36:04.217Z,75.7
2016-09-29T02:37:04.903Z,75.4
2016-09-29T02:38:05.595Z,75.98
2016-09-29T02:39:06.294Z,75.7
2016-09-29T02:40:06.992Z,75.98
2016-09-29T02:41:07.696Z,75.79
2016-09-29T02:42:08.388Z,75.89
2016-09-29T02:43:09.109Z,75.89
2016-09-29T02:44:09.808Z,75.98
2016-09-29T02:45:10.488Z,75.98
2016-09-29T02:46:11.187Z,75.7
2016-09-29T02:47:11.884Z,75.6
2016-09-29T02:48:12.577Z,75.6
2016-09-29T02:49:13.270Z,75.7
2016-09-29T02:50:13.968Z,75.79
2016-09-29T02:51:14.691Z,75.79
2016-09-29T02:52:15.398Z,75.79
2016-09-29T02:53:16.103Z,75.79
2016-09-29T02:54:16.814Z,75.5
2016-09-29T02:55:17.534Z,75.5
2016-09-29T02:56:18.224Z,75.12
2016-09-29T02:57:18.919Z,75.6
2016-09-29T02:58:19.625Z,75.31
2016-09-29T02:59:20.313Z,74.93
2016-09-29T03:00:21.023Z,75.31
2016-09-29T03:01:21.725Z,75.12
2016-09-29T03:02:22.431Z,75.21
2016-09-29T03:03:23.118Z,75.4
2016-09-29T03:04:23.807Z,74.93
2016-09-29T03:05:24.499Z,75.02
2016-09-29T03:06:25.218Z,74.93
2016-09-29T03:07:25.914Z,75.21
2016-09-29T03:08:26.604Z,74.93
2016-09-29T03:09:27.297Z,75.12
2016-09-29T03:10:27.978Z,75.12
2016-09-29T03:11:28.677Z,75.4
2016-09-29T03:12:29.363Z,75.02
2016-09-29T03:13:30.061Z,75.12
2016-09-29T03:14:30.758Z,75.21
2016-09-29T03:15:31.479Z,75.21
2016-09-29T03:16:32.276Z,75.12
2016-09-29T03:17:32.965Z,75.4
2016-09-29T03:18:33.652Z,75.5
2016-09-29T03:19:34.353Z,75.12
2016-09-29T03:20:35.047Z,75.31
2016-09-29T03:21:35.752Z,75.5
2016-09-29T03:22:36.848Z,75.31
2016-09-29T03:23:37.626Z,75.12
2016-09-29T03:24:38.404Z,74.93
2016-09-29T03:25:39.485Z,74.83
2016-09-29T03:26:40.168Z,75.12
2016-09-29T03:27:40.878Z,74.26
2016-09-29T03:28:41.568Z,74.68
2016-09-29T03:29:42.273Z,74.58
2016-09-29T03:30:43.052Z,74.64
2016-09-29T03:31:43.801Z,74.35
2016-09-29T03:32:44.538Z,74.54
2016-09-29T03:33:45.246Z,74.64
2016-09-29T03:34:45.925Z,74.73
2016-09-29T03:35:46.640Z,74.48
2016-09-29T03:36:47.361Z,73.77
2016-09-29T03:37:48.028Z,73.97
2016-09-29T03:38:48.706Z,73.81
2016-09-29T03:39:49.409Z,73.62
2016-09-29T03:40:50.108Z,73.14
2016-09-29T03:41:50.798Z,73.52
2016-09-29T03:42:51.500Z,74.1
2016-09-29T03:43:52.215Z,73.68
2016-09-29T03:44:52.923Z,73.52
2016-09-29T03:45:53.640Z,73.14
2016-09-29T03:46:54.335Z,73.91
2016-09-29T03:47:55.027Z,73.62
2016-09-29T03:48:55.737Z,73.24
2016-09-29T03:49:56.426Z,73.39
2016-09-29T03:50:57.145Z,73.77
2016-09-29T03:51:57.854Z,73.77
2016-09-29T03:52:58.565Z,73.68
2016-09-29T03:53:59.252Z,73.77
2016-09-29T03:54:59.949Z,73.97
2016-09-29T03:56:00.664Z,73.68
2016-09-29T03:57:01.349Z,73.77
2016-09-29T03:58:02.056Z,73.81
2016-09-29T03:59:02.758Z,73.72
2016-09-29T04:00:03.441Z,73.81
2016-09-29T04:01:04.131Z,73.77
2016-09-29T04:02:04.839Z,74.06
2016-09-29T04:03:05.527Z,73.68
2016-09-29T04:04:06.214Z,73.97
2016-09-29T04:05:06.928Z,73.72
2016-09-29T04:06:07.620Z,73.97
2016-09-29T04:07:08.299Z,73.91
2016-09-29T04:08:08.985Z,73.2
2016-09-29T04:09:09.686Z,73.43
2016-09-29T04:10:10.376Z,74.1
2016-09-29T04:11:11.066Z,73.52
2016-09-29T04:12:11.776Z,73.72
2016-09-29T04:13:12.478Z,73.72
2016-09-29T04:14:13.171Z,73.81
2016-09-29T04:15:13.867Z,73.72
2016-09-29T04:16:14.553Z,73.72
2016-09-29T04:17:15.247Z,73.72
2016-09-29T04:18:15.950Z,74.01
2016-09-29T04:19:16.637Z,73.24
2016-09-29T04:20:17.333Z,74.29
2016-09-29T04:21:18.042Z,74.01
2016-09-29T04:22:18.735Z,73.62
2016-09-29T04:23:19.426Z,73.52
2016-09-29T04:24:20.110Z,73.52
2016-09-29T04:25:20.811Z,74.01
2016-09-29T04:26:21.497Z,73.43
2016-09-29T04:27:22.190Z,73.52
2016-09-29T04:28:22.882Z,74.1
2016-09-29T04:29:23.594Z,73.33
2016-09-29T04:30:24.300Z,73.81
2016-09-29T04:31:25.005Z,73.72
2016-09-29T04:32:25.690Z,73.72
2016-09-29T04:33:26.379Z,73.52
2016-09-29T04:34:27.088Z,73.81
2016-09-29T04:35:27.773Z,73.62
2016-09-29T04:36:28.464Z,73.72
2016-09-29T04:37:29.157Z,73.62
2016-09-29T04:38:29.849Z,73.43
2016-09-29T04:39:30.543Z,73.58
2016-09-29T04:40:31.244Z,74.29
2016-09-29T04:41:31.951Z,73.68
2016-09-29T04:42:32.645Z,74.19
2016-09-29T04:43:33.329Z,73.62
2016-09-29T04:44:34.029Z,73.62
2016-09-29T04:45:34.731Z,73.72
2016-09-29T04:46:35.438Z,73.81
2016-09-29T04:47:36.137Z,73.62
2016-09-29T04:48:36.824Z,73.52
2016-09-29T04:49:37.514Z,73.43
2016-09-29T04:50:38.207Z,73.72
2016-09-29T04:51:38.912Z,73.33
2016-09-29T04:52:39.622Z,73.33
2016-09-29T04:53:40.363Z,73.62
2016-09-29T04:54:41.070Z,73.62
2016-09-29T04:55:41.784Z,73.43
2016-09-29T04:56:42.465Z,73.52
2016-09-29T04:57:43.190Z,73.91
2016-09-29T04:58:43.897Z,73.72
2016-09-29T04:59:44.581Z,73.04
2016-09-29T05:00:45.275Z,73.24
2016-09-29T05:01:45.984Z,74.19
2016-09-29T05:02:46.666Z,73.72
2016-09-29T05:03:47.379Z,73.81
2016-09-29T05:04:48.064Z,73.91
2016-09-29T05:05:48.785Z,74.29
2016-09-29T05:06:49.474Z,74.19
2016-09-29T05:07:50.163Z,74.19
2016-09-29T05:08:51.373Z,73.72
2016-09-29T05:09:52.087Z,73.91
2016-09-29T05:10:52.793Z,74.1
2016-09-29T05:11:53.485Z,73.91
2016-09-29T05:12:54.174Z,73.72
2016-09-29T05:13:54.878Z,74.29
2016-09-29T05:14:55.554Z,73.52
2016-09-29T05:15:56.264Z,73.62
2016-09-29T05:16:56.978Z,73.43
2016-09-29T05:17:57.666Z,73.52
2016-09-29T05:18:58.376Z,73.52
2016-09-29T05:19:59.055Z,73.81
2016-09-29T05:20:59.766Z,73.33
2016-09-29T05:22:01.007Z,73.72
2016-09-29T05:23:01.699Z,73.81
2016-09-29T05:24:02.390Z,73.72
2016-09-29T05:25:03.094Z,74.01
2016-09-29T05:26:05.062Z,74.01
2016-09-29T05:27:07.233Z,74.01
2016-09-29T05:28:08.906Z,74.01
2016-09-29T05:29:09.835Z,73.62
2016-09-29T05:30:12.330Z,73.81
2016-09-29T05:31:13.785Z,73.62
2016-09-29T05:32:14.725Z,73.81
2016-09-29T05:33:15.421Z,73.75
2016-09-29T05:34:16.450Z,74.04
2016-09-29T05:35:17.525Z,73.85
2016-09-29T05:36:18.241Z,73.85
2016-09-29T05:37:18.940Z,73.37
2016-09-29T05:38:19.643Z,73.46
2016-09-29T05:39:20.343Z,74.23
2016-09-29T05:40:21.069Z,74.04
2016-09-29T05:41:21.764Z,73.18
2016-09-29T05:42:22.490Z,73.46
2016-09-29T05:43:23.190Z,73.94
2016-09-29T05:44:23.891Z,73.56
2016-09-29T05:45:24.594Z,73.75
2016-09-29T05:46:25.310Z,73.66
2016-09-29T05:47:26.042Z,73.37
2016-09-29T05:48:26.988Z,73.66
2016-09-29T05:49:27.645Z,73.66
2016-09-29T05:50:28.348Z,73.18
2016-09-29T05:51:29.187Z,73.37
2016-09-29T05:52:30.127Z,73.27
2016-09-29T05:53:31.551Z,73.75
2016-09-29T05:54:33.629Z,73.66
2016-09-29T05:55:35.182Z,72.79
2016-09-29T05:56:36.621Z,73.18
2016-09-29T05:57:38.061Z,73.18
2016-09-29T05:58:39.502Z,73.08
2016-09-29T05:59:40.990Z,72.6
2016-09-29T06:00:42.204Z,72.79
2016-09-29T06:01:42.927Z,72.79
2016-09-29T06:02:43.644Z,72.99
2016-09-29T06:03:44.384Z,73.08
2016-09-29T06:04:45.109Z,72.89
2016-09-29T06:05:45.816Z,72.79
2016-09-29T06:06:46.518Z,73.18
2016-09-29T06:07:47.211Z,72.69
2016-09-29T06:08:47.908Z,72.89
2016-09-29T06:09:48.609Z,72.79
2016-09-29T06:10:49.312Z,72.99
2016-09-29T06:11:50.003Z,73.46
2016-09-29T06:12:50.691Z,72.73
2016-09-29T06:13:51.382Z,72.79
2016-09-29T06:14:52.087Z,73.27
2016-09-29T06:15:52.798Z,73.21
2016-09-29T06:16:53.499Z,72.69
2016-09-29T06:17:54.193Z,72.25
2016-09-29T06:18:54.893Z,72.44
2016-09-29T06:19:55.624Z,71.96
2016-09-29T06:20:56.314Z,72.06
2016-09-29T06:21:57.020Z,71.87
2016-09-29T06:22:57.711Z,71.77
2016-09-29T06:23:58.400Z,71.87
2016-09-29T06:24:59.114Z,71.93
2016-09-29T06:25:59.827Z,72.44
2016-09-29T06:27:00.530Z,71.96
2016-09-29T06:28:01.230Z,71.77
2016-09-29T06:29:01.943Z,71.19
2016-09-29T06:30:02.650Z,70.72
2016-09-29T06:31:03.349Z,70.72
2016-09-29T06:32:04.067Z,70.9
2016-09-29T06:33:04.779Z,70.23
2016-09-29T06:34:05.488Z,70.43
2016-09-29T06:35:06.190Z,70.52
2016-09-29T06:36:06.912Z,70.14
2016-09-29T06:37:07.623Z,70.33
2016-09-29T06:38:08.372Z,69.56
2016-09-29T06:39:09.105Z,69.75
2016-09-29T06:40:09.804Z,69.46
2016-09-29T06:41:10.509Z,69.18
2016-09-29T06:42:11.201Z,69.27
2016-09-29T06:43:11.903Z,69.08
2016-09-29T06:44:12.596Z,69.18
2016-09-29T06:45:13.304Z,68.89
2016-09-29T06:46:13.996Z,68.6
2016-09-29T06:47:14.714Z,68.98
2016-09-29T06:48:15.423Z,68.7
2016-09-29T06:49:16.108Z,68.89
2016-09-29T06:50:16.819Z,68.89
2016-09-29T06:51:17.521Z,68.51
2016-09-29T06:52:18.215Z,68.12
2016-09-29T06:53:18.926Z,67.93
2016-09-29T06:54:19.653Z,67.64
2016-09-29T06:55:20.339Z,67.54
2016-09-29T06:56:21.118Z,67.35
2016-09-29T06:57:21.825Z,66.77
2016-09-29T06:58:22.509Z,66.58
2016-09-29T06:59:23.234Z,66.68
2016-09-29T07:00:23.927Z,67.64
2016-09-29T07:01:24.631Z,66.68
2016-09-29T07:02:25.323Z,66.58
2016-09-29T07:03:26.030Z,66.3
2016-09-29T07:04:26.729Z,65.05
2016-09-29T07:05:27.423Z,65.53
2016-09-29T07:06:28.130Z,65.14
2016-09-29T07:07:28.854Z,65.14
2016-09-29T07:08:29.539Z,64.56
2016-09-29T07:09:30.232Z,65.05
2016-09-29T07:10:30.939Z,65.81
2016-09-29T07:11:31.660Z,64.95
2016-09-29T07:12:32.365Z,63.7
2016-09-29T07:13:33.053Z,63.12
2016-09-29T07:14:33.782Z,63.6
2016-09-29T07:15:34.482Z,63.6
2016-09-29T07:16:35.178Z,63.41
2016-09-29T07:17:35.870Z,63.51
2016-09-29T07:18:36.573Z,63.22
2016-09-29T07:19:37.270Z,63.32
2016-09-29T07:20:37.997Z,63.89
2016-09-29T07:21:38.693Z,62.84
2016-09-29T07:22:39.393Z,62.93
2016-09-29T07:23:40.089Z,62.45
2016-09-29T07:24:40.791Z,62.26
2016-09-29T07:25:41.496Z,62.26
2016-09-29T07:26:42.189Z,61.78
2016-09-29T07:27:42.880Z,62.64
2016-09-29T07:28:43.583Z,61.58
2016-09-29T07:29:44.293Z,60.63
2016-09-29T07:30:45.004Z,61.2
2016-09-29T07:31:45.712Z,61.3
2016-09-29T07:32:46.406Z,60.72
2016-09-29T07:33:47.133Z,60.63
2016-09-29T07:34:47.837Z,59.57
2016-09-29T07:35:48.531Z,59.57
2016-09-29T07:36:49.413Z,60.66
2016-09-29T07:37:50.290Z,59.31
2016-09-29T07:38:51.006Z,59.5
2016-09-29T07:39:51.803Z,58.92
2016-09-29T07:40:52.461Z,58.73
2016-09-29T07:41:53.188Z,58.83
2016-09-29T07:42:53.958Z,58.35
2016-09-29T07:43:54.658Z,58.54
2016-09-29T07:44:55.368Z,57.97
2016-09-29T07:45:56.083Z,57.48
2016-09-29T07:46:56.802Z,57.97
2016-09-29T07:47:57.503Z,57.68
2016-09-29T07:48:58.197Z,57.2
2016-09-29T07:49:58.944Z,57.29
2016-09-29T07:50:59.620Z,57.39
2016-09-29T07:52:00.319Z,57.77
2016-09-29T07:53:01.127Z,57.58
2016-09-29T07:54:01.801Z,56.81
2016-09-29T07:55:02.510Z,57.2
2016-09-29T07:56:03.232Z,56.81
2016-09-29T07:57:03.954Z,57.29
2016-09-29T07:58:04.709Z,57.39
2016-09-29T07:59:05.416Z,56.52
2016-09-29T08:00:06.129Z,56.71
2016-09-29T08:01:06.846Z,56.33
2016-09-29T08:02:07.541Z,56.91
2016-09-29T08:03:08.262Z,57.29
2016-09-29T08:04:08.978Z,56.23
2016-09-29T08:05:09.652Z,56.91
2016-09-29T08:06:10.374Z,56.52
2016-09-29T08:07:11.085Z,55.76
2016-09-29T08:08:11.773Z,56.23
2016-09-29T08:09:12.481Z,55.18
2016-09-29T08:10:13.195Z,55.46
2016-09-29T08:11:13.920Z,55.56
2016-09-29T08:12:14.907Z,56.14
2016-09-29T08:13:15.382Z,55.66
2016-09-29T08:14:16.200Z,55.66
2016-09-29T08:15:16.938Z,55.94
2016-09-29T08:16:17.834Z,56.16
2016-09-29T08:17:18.534Z,56.04
2016-09-29T08:18:19.245Z,55.88
2016-09-29T08:19:19.943Z,55.66
2016-09-29T08:20:20.809Z,55.98
2016-09-29T08:21:21.696Z,56.23
2016-09-29T08:22:22.540Z,55.98
2016-09-29T08:23:23.274Z,55.4
2016-09-29T08:24:24.070Z,56.26
2016-09-29T08:25:24.879Z,56.36
2016-09-29T08:26:25.739Z,55.88
2016-09-29T08:27:26.792Z,55.49
2016-09-29T08:28:27.665Z,56.26
2016-09-29T08:29:28.293Z,55.78
2016-09-29T08:30:29.055Z,56.16
2016-09-29T08:31:29.949Z,56.26
2016-09-29T08:32:31.043Z,55.88
2016-09-29T08:33:31.837Z,55.88
2016-09-29T08:34:32.587Z,55.88
2016-09-29T08:35:33.284Z,55.49
2016-09-29T08:36:34.000Z,55.43
2016-09-29T08:37:34.721Z,55.52
2016-09-29T08:38:35.441Z,55.98
2016-09-29T08:39:36.238Z,55.4
2016-09-29T08:40:36.927Z,55.78
2016-09-29T08:41:37.635Z,55.62
2016-09-29T08:42:38.340Z,55.9
2016-09-29T08:43:39.038Z,55.33
2016-09-29T08:44:39.778Z,55.52
2016-09-29T08:45:40.492Z,54.97
2016-09-29T08:46:41.210Z,54.68
2016-09-29T08:47:41.948Z,54.1
2016-09-29T08:48:42.663Z,53.91
2016-09-29T08:49:43.377Z,54.2
2016-09-29T08:50:44.110Z,54.58
2016-09-29T08:51:44.819Z,54.87
2016-09-29T08:52:45.514Z,54.97
2016-09-29T08:53:46.227Z,55.35
2016-09-29T08:54:46.978Z,55.45
2016-09-29T08:55:47.685Z,55.35
2016-09-29T08:56:48.395Z,55.35
2016-09-29T08:57:49.115Z,55.65
2016-09-29T08:58:49.858Z,55.65
2016-09-29T08:59:50.562Z,55.93
2016-09-29T09:00:51.283Z,56.12
2016-09-29T09:01:51.996Z,55.65
2016-09-29T09:02:52.710Z,55.74
2016-09-29T09:03:53.418Z,55.16
2016-09-29T09:04:54.126Z,55.45
2016-09-29T09:05:54.833Z,55.35
2016-09-29T09:06:55.522Z,55.45
2016-09-29T09:07:57.101Z,55.26
2016-09-29T09:08:57.841Z,55.93
2016-09-29T09:09:58.547Z,55.74
2016-09-29T09:10:59.279Z,56.03
2016-09-29T09:12:00.005Z,55.26
2016-09-29T09:13:00.726Z,55.93
2016-09-29T09:14:01.444Z,55.93
2016-09-29T09:15:02.148Z,55.35
2016-09-29T09:16:02.846Z,55.45
2016-09-29T09:17:03.574Z,55.35
2016-09-29T09:18:04.286Z,55.55
2016-09-29T09:19:04.995Z,55.26
2016-09-29T09:20:05.713Z,55.35
2016-09-29T09:21:06.424Z,54.97
2016-09-29T09:22:07.134Z,55.26
2016-09-29T09:23:07.864Z,55.45
2016-09-29T09:24:08.588Z,55.26
2016-09-29T09:25:09.315Z,55.26
2016-09-29T09:26:10.060Z,56.03
2016-09-29T09:27:10.772Z,55.83
2016-09-29T09:28:11.581Z,55.83
2016-09-29T09:29:12.198Z,56.12
2016-09-29T09:30:12.917Z,55.93
2016-09-29T09:31:13.642Z,56.32
2016-09-29T09:32:14.351Z,56.22
2016-09-29T09:33:15.060Z,56.7
2016-09-29T09:34:15.768Z,56.32
2016-09-29T09:35:16.494Z,56.22
2016-09-29T09:36:17.216Z,56.12
2016-09-29T09:37:17.937Z,56.7
2016-09-29T09:38:18.646Z,56.8
2016-09-29T09:39:19.355Z,56.8
2016-09-29T09:40:20.055Z,56.22
2016-09-29T09:41:20.761Z,56.6
2016-09-29T09:42:21.561Z,56.51
2016-09-29T09:43:22.271Z,56.15
2016-09-29T09:44:22.983Z,56.25
2016-09-29T09:45:23.685Z,55.96
2016-09-29T09:46:24.488Z,56.25
2016-09-29T09:47:25.216Z,56.15
2016-09-29T09:48:25.994Z,56.25
2016-09-29T09:49:26.644Z,55.67
2016-09-29T09:50:27.348Z,55.57
2016-09-29T09:51:28.042Z,56.44
2016-09-29T09:52:28.763Z,55.96
2016-09-29T09:53:29.467Z,56.73
2016-09-29T09:54:30.179Z,56.44
2016-09-29T09:55:30.919Z,56.73
2016-09-29T09:56:31.620Z,56.25
2016-09-29T09:57:32.343Z,56.35
2016-09-29T09:58:33.069Z,56.63
2016-09-29T09:59:33.766Z,56.44
2016-09-29T10:00:34.479Z,56.27
2016-09-29T10:01:35.185Z,56.37
2016-09-29T10:02:35.906Z,55.96
2016-09-29T10:03:36.601Z,56.82
2016-09-29T10:04:37.317Z,56.35
2016-09-29T10:05:38.039Z,56.54
2016-09-29T10:06:38.783Z,56.82
2016-09-29T10:07:39.715Z,56.82
2016-09-29T10:08:40.451Z,56.57
2016-09-29T10:09:41.175Z,56.54
2016-09-29T10:10:41.938Z,56.63
2016-09-29T10:11:42.624Z,56.54
2016-09-29T10:12:43.320Z,57.5
2016-09-29T10:13:44.083Z,56.92
2016-09-29T10:14:44.790Z,57.31
2016-09-29T10:15:45.560Z,57.6
2016-09-29T10:16:46.263Z,57.31
2016-09-29T10:17:46.985Z,57.21
2016-09-29T10:18:47.911Z,57.79
2016-09-29T10:19:48.788Z,57.5
2016-09-29T10:20:49.905Z,57.89
2016-09-29T10:21:50.487Z,57.4
2016-09-29T10:22:51.266Z,57.4
2016-09-29T10:23:51.983Z,57.6
2016-09-29T10:24:52.710Z,57.4
2016-09-29T10:25:53.433Z,57.6
2016-09-29T10:26:54.160Z,57.69
2016-09-29T10:27:54.887Z,57.89
2016-09-29T10:28:55.633Z,57.98
2016-09-29T10:29:56.359Z,57.89
2016-09-29T10:30:57.114Z,57.5
2016-09-29T10:31:57.831Z,57.89
2016-09-29T10:32:58.594Z,58.17
2016-09-29T10:33:59.284Z,57.6
2016-09-29T10:35:00.035Z,57.89
2016-09-29T10:36:00.739Z,57.6
2016-09-29T10:37:01.488Z,57.89
2016-09-29T10:38:02.207Z,57.69
2016-09-29T10:39:02.946Z,57.5
2016-09-29T10:40:03.652Z,57.5
2016-09-29T10:41:04.359Z,57.79
2016-09-29T10:42:05.052Z,57.69
2016-09-29T10:43:05.749Z,57.98
2016-09-29T10:44:06.940Z,57.69
2016-09-29T10:45:07.648Z,57.98
2016-09-29T10:46:08.469Z,58.27
2016-09-29T10:47:09.166Z,58.17
2016-09-29T10:48:09.869Z,58.01
2016-09-29T10:49:10.581Z,57.82
2016-09-29T10:50:11.358Z,57.43
2016-09-29T10:51:12.223Z,57.53
2016-09-29T10:52:12.862Z,57.53
2016-09-29T10:53:13.724Z,57.43
2016-09-29T10:54:14.429Z,57.24
2016-09-29T10:55:15.148Z,57.43
2016-09-29T10:56:15.858Z,57.65
2016-09-29T10:57:16.699Z,57.94
2016-09-29T10:58:17.425Z,57.46
2016-09-29T10:59:18.121Z,56.88
2016-09-29T11:00:18.916Z,56.59
2016-09-29T11:01:19.692Z,56.49
2016-09-29T11:02:20.423Z,56.3
2016-09-29T11:03:21.159Z,55.63
2016-09-29T11:04:21.859Z,56.01
2016-09-29T11:05:22.587Z,56.49
2016-09-29T11:06:23.288Z,56.4
2016-09-29T11:07:24.004Z,56.4
2016-09-29T11:08:24.705Z,56.3
2016-09-29T11:09:25.430Z,56.11
2016-09-29T11:10:26.129Z,56.49
2016-09-29T11:11:26.818Z,56.01
2016-09-29T11:12:27.546Z,56.3
2016-09-29T11:13:28.263Z,55.76
2016-09-29T11:14:28.985Z,56.21
2016-09-29T11:15:29.703Z,56.01
2016-09-29T11:16:30.432Z,56.4
2016-09-29T11:17:31.139Z,56.01
2016-09-29T11:18:31.849Z,55.44
2016-09-29T11:19:32.543Z,55.24
2016-09-29T11:20:33.250Z,55.54
2016-09-29T11:21:33.955Z,55.92
2016-09-29T11:22:34.675Z,55.82
2016-09-29T11:23:35.400Z,55.82
2016-09-29T11:24:36.133Z,55.82
2016-09-29T11:25:36.843Z,55.82
2016-09-29T11:26:37.563Z,55.92
2016-09-29T11:27:38.292Z,55.63
2016-09-29T11:28:38.989Z,55.54
2016-09-29T11:29:39.696Z,55.82
2016-09-29T11:30:40.418Z,56.11
2016-09-29T11:31:41.113Z,56.01
2016-09-29T11:32:41.811Z,55.63
2016-09-29T11:33:42.538Z,55.63
2016-09-29T11:34:43.237Z,55.44
2016-09-29T11:35:43.943Z,55.54
2016-09-29T11:36:44.657Z,55.54
2016-09-29T11:37:45.378Z,55.92
2016-09-29T11:38:46.087Z,55.34
2016-09-29T11:39:46.834Z,55.44
2016-09-29T11:40:47.535Z,55.24
2016-09-29T11:41:48.259Z,55.44
2016-09-29T11:42:49.020Z,55.24
2016-09-29T11:43:49.708Z,55.05
2016-09-29T11:44:50.416Z,55.34
2016-09-29T11:45:51.131Z,55.44
2016-09-29T11:46:51.837Z,55.34
2016-09-29T11:47:52.539Z,55.44
2016-09-29T11:48:53.257Z,55.34
2016-09-29T11:49:53.949Z,55.24
2016-09-29T11:50:54.663Z,55.15
2016-09-29T11:51:55.370Z,55.54
2016-09-29T11:52:56.057Z,55.34
2016-09-29T11:53:56.764Z,55.44
2016-09-29T11:54:57.472Z,55.54
2016-09-29T11:55:58.185Z,55.73
2016-09-29T11:56:58.892Z,55.79
2016-09-29T11:57:59.583Z,56.09
2016-09-29T11:59:00.289Z,56.47
2016-09-29T12:00:01.104Z,56.76
2016-09-29T12:01:01.828Z,56.47
2016-09-29T12:02:02.520Z,56.76
2016-09-29T12:03:03.237Z,56.57
2016-09-29T12:04:03.963Z,56.47
2016-09-29T12:05:04.682Z,56.27
2016-09-29T12:06:05.409Z,56.57
2016-09-29T12:07:06.117Z,56.57
2016-09-29T12:08:06.823Z,56.49
2016-09-29T12:09:07.525Z,56.57
2016-09-29T12:10:08.235Z,56.57
2016-09-29T12:11:08.940Z,56.95
2016-09-29T12:12:09.643Z,56.85
2016-09-29T12:13:10.348Z,56.59
2016-09-29T12:14:11.041Z,56.95
2016-09-29T12:15:11.786Z,57.24
2016-09-29T12:16:12.498Z,57.14
2016-09-29T12:17:13.208Z,57.43
2016-09-29T12:18:13.968Z,56.95
2016-09-29T12:19:14.662Z,57.43
2016-09-29T12:20:15.359Z,57.24
2016-09-29T12:21:16.125Z,57.34
2016-09-29T12:22:16.950Z,57.14
2016-09-29T12:23:17.657Z,57.34
2016-09-29T12:24:18.363Z,57.53
2016-09-29T12:25:19.066Z,56.66
2016-09-29T12:26:19.776Z,57.24
2016-09-29T12:27:20.477Z,56.37
2016-09-29T12:28:21.181Z,56.69
2016-09-29T12:29:21.925Z,56.79
2016-09-29T12:30:22.700Z,56.76
2016-09-29T12:31:23.389Z,56.79
2016-09-29T12:32:24.115Z,56.85
2016-09-29T12:33:24.958Z,57.53
2016-09-29T12:34:25.698Z,57.46
2016-09-29T12:35:26.423Z,57.53
2016-09-29T12:36:27.178Z,57.07
2016-09-29T12:37:27.880Z,56.88
2016-09-29T12:38:28.621Z,56.4
2016-09-29T12:39:29.328Z,56.59
2016-09-29T12:40:30.032Z,56.59
2016-09-29T12:41:30.761Z,57.37
2016-09-29T12:42:31.480Z,57.94
2016-09-29T12:43:32.189Z,57.56
2016-09-29T12:44:32.915Z,57.46
2016-09-29T12:45:33.624Z,58.14
2016-09-29T12:46:34.362Z,58.52
2016-09-29T12:47:35.072Z,59.2
2016-09-29T12:48:35.790Z,59.68
2016-09-29T12:49:36.523Z,59.58
2016-09-29T12:50:37.239Z,60.06
2016-09-29T12:51:37.975Z,60.55
2016-09-29T12:52:38.664Z,60.45
2016-09-29T12:53:39.383Z,59.68
2016-09-29T12:54:40.106Z,60.64
2016-09-29T12:55:40.847Z,61.03
2016-09-29T12:56:41.547Z,61.29
2016-09-29T12:57:42.300Z,61.58
2016-09-29T12:58:43.028Z,62.15
2016-09-29T12:59:43.773Z,62.54
2016-09-29T13:00:44.497Z,62.25
2016-09-29T13:01:45.236Z,62.54
2016-09-29T13:02:45.948Z,62.45
2016-09-29T13:03:46.665Z,63.02
2016-09-29T13:04:47.373Z,62.83